Weather History for Appleton, MN

Change the Weather History Date:

Monday, September 3, 2012

  Actual Average Record
Temperature  
Mean Temperature 72 °F -  
Max Temperature 91 °F 77 °F 91 °F (2007)
Min Temperature 53 °F 53 °F 37 °F (2008)
Cooling Degree Days 7    
Growing Degree Days 22 (Base 50)    
Moisture  
Dew Point 50 °F    
Average Humidity 56    
Maximum Humidity 100    
Minimum Humidity 11    
Precipitation  
Precipitation 0.00 in - - ()
Sea Level Pressure  
Sea Level Pressure 29.88 in    
Wind  
Wind Speed 5 mph (ESE)    
Max Wind Speed 10 mph    
Max Gust Speed -    
Visibility 9 miles    
Events      
Averages and records for this station are not official NWS values.
T = Trace of Precipitation, MM = Missing Value Source: NWS Daily Summary

Daily Weather History Graph

Daily Weather History Graph

Search for Another Location

Airport:

Trip Planner

Search our weather history database for the weather conditions in past years. The results will help you decide how hot, cold, wet, or windy it might be!

Date:

Astronomy

Sep. 03, 2012 Rise Set
Actual Time 6:48 AM CDT 7:56 PM CDT
Civil Twilight 6:18 AM CDT 8:26 PM CDT
Nautical Twilight 5:42 AM CDT 9:03 PM CDT
Astronomical Twilight 5:03 AM CDT 9:41 PM CDT
Moon 9:03 PM CDT (9/3) 10:10 AM CDT (9/3)
Length of Visible Light 14h 08m
Length of Day
13h 07m
Waning Gibbous, 90% of the Moon is Illuminated
Sep 3
Waning Gibbous
Sep 8
Last Quarter
Sep 15
New
Sep 22
First Quarter
Sep 29
Full

Hourly Weather History & Observations

Time (CDT) Temp. Heat Index Dew Point Humidity Pressure Visibility Wind Dir Wind Speed Gust Speed Precip Events Conditions
12:13 AM 66.2 °F - 60.8 °F 83% 29.87 in 10.0 mi NNW 5.8 mph - N/A   Clear
12:18 AM 66.2 °F - 60.8 °F 83% 29.87 in 10.0 mi NNW 5.8 mph - N/A   Clear
12:33 AM 66.2 °F - 60.8 °F 83% 29.87 in 10.0 mi NNW 6.9 mph - N/A   Clear
12:38 AM 66.2 °F - 60.8 °F 83% 29.87 in 10.0 mi NNW 5.8 mph - N/A   Clear
12:53 AM 66.2 °F - 60.8 °F 83% 29.88 in 10.0 mi NNW 5.8 mph - N/A   Clear
12:57 AM 66.2 °F - 60.8 °F 83% 29.88 in 10.0 mi NNW 5.8 mph - N/A   Clear
1:13 AM 66.2 °F - 59.0 °F 78% 29.88 in 10.0 mi NNW 4.6 mph - N/A   Clear
1:17 AM 64.4 °F - 59.0 °F 83% 29.88 in 10.0 mi NNW 5.8 mph - N/A   Clear
1:33 AM 64.4 °F - 59.0 °F 83% 29.88 in 10.0 mi NNW 6.9 mph - N/A   Clear
1:37 AM 64.4 °F - 59.0 °F 83% 29.88 in 10.0 mi NNW 5.8 mph - N/A   Clear
1:53 AM 64.4 °F - 59.0 °F 83% 29.88 in 10.0 mi NNW 5.8 mph - N/A   Clear
1:57 AM 64.4 °F - 59.0 °F 83% 29.88 in 10.0 mi NNW 4.6 mph - N/A   Clear
2:14 AM 64.4 °F - 59.0 °F 83% 29.88 in 10.0 mi NNW 5.8 mph - N/A   Clear
2:17 AM 64.4 °F - 59.0 °F 83% 29.89 in 10.0 mi NNW 5.8 mph - N/A   Clear
2:34 AM 62.6 °F - 57.2 °F 82% 29.88 in 10.0 mi North 5.8 mph - N/A   Clear
2:37 AM 62.6 °F - 57.2 °F 82% 29.88 in 10.0 mi North 4.6 mph - N/A   Clear
2:53 AM 62.6 °F - 57.2 °F 82% 29.89 in 10.0 mi Calm Calm - N/A   Clear
2:57 AM 60.8 °F - 57.2 °F 88% 29.89 in 10.0 mi Calm Calm - N/A   Clear
3:14 AM 60.8 °F - 57.2 °F 88% 29.88 in 10.0 mi Calm Calm - N/A   Clear
3:17 AM 60.8 °F - 57.2 °F 88% 29.88 in 10.0 mi Calm Calm - N/A   Clear
3:34 AM 60.8 °F - 57.2 °F 88% 29.89 in 10.0 mi Calm Calm - N/A   Clear
3:37 AM 60.8 °F - 57.2 °F 88% 29.89 in 10.0 mi Calm Calm - N/A   Clear
3:57 AM 57.2 °F - 55.4 °F 94% 29.89 in 10.0 mi Calm Calm - N/A   Clear
4:13 AM 57.2 °F - 55.4 °F 94% 29.89 in 10.0 mi Calm Calm - N/A   Clear
4:18 AM 57.2 °F - 55.4 °F 94% 29.89 in 10.0 mi Calm Calm - N/A   Clear
4:33 AM 57.2 °F - 55.4 °F 94% 29.90 in 10.0 mi Calm Calm - N/A   Clear
4:37 AM 57.2 °F - 55.4 °F 94% 29.90 in 10.0 mi Calm Calm - N/A   Clear
4:53 AM 57.2 °F - 55.4 °F 94% 29.90 in 10.0 mi Calm Calm - N/A   Clear
4:57 AM 57.2 °F - 55.4 °F 94% 29.90 in 10.0 mi Calm Calm - N/A   Clear
5:13 AM 55.4 °F - 53.6 °F 94% 29.90 in 10.0 mi WSW 4.6 mph - N/A   Clear
5:18 AM 55.4 °F - 53.6 °F 94% 29.91 in 10.0 mi WSW 5.8 mph - N/A   Clear
5:33 AM 55.4 °F - 53.6 °F 94% 29.90 in 10.0 mi West 3.5 mph - N/A   Clear
5:37 AM 55.4 °F - 53.6 °F 94% 29.91 in 10.0 mi West 3.5 mph - N/A   Clear
5:54 AM 55.4 °F - 53.6 °F 94% 29.91 in 7.0 mi West 3.5 mph - N/A   Clear
5:57 AM 53.6 °F - 53.6 °F 100% 29.91 in 7.0 mi West 3.5 mph - N/A   Clear
6:13 AM 55.4 °F - 53.6 °F 94% 29.91 in 7.0 mi WSW 4.6 mph - N/A   Clear
6:17 AM 55.4 °F - 53.6 °F 94% 29.91 in 7.0 mi WSW 3.5 mph - N/A   Clear
6:33 AM 55.4 °F - 53.6 °F 94% 29.91 in 7.0 mi Calm Calm - N/A   Clear
6:37 AM 55.4 °F - 53.6 °F 94% 29.91 in 7.0 mi Calm Calm - N/A   Clear
6:57 AM 55.4 °F - 53.6 °F 94% 29.91 in 1.5 mi Calm Calm - N/A   Clear
7:13 AM 53.6 °F - 51.8 °F 94% 29.92 in 1.5 mi Calm Calm - N/A   Clear
7:17 AM 53.6 °F - 51.8 °F 94% 29.92 in 1.2 mi Calm Calm - N/A   Clear
7:33 AM 53.6 °F - 53.6 °F 100% 29.93 in 1.5 mi West 4.6 mph - N/A   Clear
7:38 AM 53.6 °F - 51.8 °F 94% 29.93 in 0.8 mi West 4.6 mph - N/A   Mist
7:53 AM 53.6 °F - 53.6 °F 100% 29.93 in 5.0 mi Calm Calm - N/A   Clear
8:13 AM 55.4 °F - 55.4 °F 100% 29.93 in 7.0 mi Calm Calm - N/A   Clear
8:17 AM 55.4 °F - 55.4 °F 100% 29.93 in 7.0 mi Calm Calm - N/A   Clear
8:33 AM 57.2 °F - 57.2 °F 100% 29.93 in 10.0 mi Calm Calm - N/A   Clear
8:37 AM 59.0 °F - 57.2 °F 94% 29.93 in 10.0 mi Calm Calm - N/A   Clear
8:54 AM 60.8 °F - 59.0 °F 94% 29.94 in 10.0 mi Calm Calm - N/A   Clear
8:57 AM 62.6 °F - 60.8 °F 94% 29.94 in 10.0 mi Calm Calm - N/A   Clear
9:13 AM 64.4 °F - 60.8 °F 88% 29.93 in 10.0 mi Calm Calm - N/A   Clear
9:17 AM 64.4 °F - 60.8 °F 88% 29.93 in 10.0 mi Calm Calm - N/A   Clear
9:33 AM 66.2 °F - 60.8 °F 83% 29.93 in 10.0 mi Calm Calm - N/A   Clear
9:39 AM 66.2 °F - 60.8 °F 83% 29.93 in 10.0 mi Calm Calm - N/A   Clear
9:53 AM 68.0 °F - 59.0 °F 73% 29.93 in 10.0 mi Calm Calm - N/A   Clear
9:57 AM 69.8 °F - 60.8 °F 73% 29.93 in 10.0 mi Calm Calm - N/A   Clear
10:13 AM 69.8 °F - 59.0 °F 68% 29.93 in 10.0 mi Calm Calm - N/A   Clear
10:18 AM 71.6 °F - 60.8 °F 69% 29.92 in 10.0 mi Calm Calm - N/A   Clear
10:33 AM 73.4 °F - 60.8 °F 65% 29.92 in 10.0 mi Calm Calm - N/A   Clear
10:37 AM 73.4 °F - 59.0 °F 61% 29.92 in 10.0 mi SE 3.5 mph - N/A   Clear
10:54 AM 78.8 °F - 57.2 °F 47% 29.92 in 10.0 mi ESE 8.1 mph - N/A   Clear
10:58 AM 78.8 °F - 57.2 °F 47% 29.92 in 10.0 mi SE 6.9 mph - N/A   Clear
11:13 AM 78.8 °F - 57.2 °F 47% 29.92 in 7.0 mi SE 8.1 mph - N/A   Clear
11:17 AM 80.6 °F 80.8 °F 57.2 °F 45% 29.92 in 7.0 mi SE 9.2 mph - N/A   Clear
11:33 AM 80.6 °F 80.3 °F 53.6 °F 39% 29.92 in 7.0 mi SE 9.2 mph - N/A   Clear
11:37 AM 80.6 °F 80.3 °F 53.6 °F 39% 29.92 in 7.0 mi SE 9.2 mph - N/A   Clear
11:53 AM 82.4 °F 81.4 °F 53.6 °F 37% 29.92 in 10.0 mi SSE 8.1 mph - N/A   Clear
11:57 AM 82.4 °F 81.4 °F 53.6 °F 37% 29.92 in 10.0 mi SSE 8.1 mph - N/A   Clear
12:13 PM 84.2 °F 82.8 °F 53.6 °F 35% 29.91 in 10.0 mi SSE 8.1 mph - N/A   Clear
12:17 PM 84.2 °F - 51.8 °F 33% 29.91 in 10.0 mi SSE 9.2 mph - N/A   Clear
12:33 PM 84.2 °F - 50.0 °F 30% 29.91 in 7.0 mi SSE 8.1 mph - N/A   Clear
12:37 PM 84.2 °F - 48.2 °F 29% 29.91 in 7.0 mi South 4.6 mph - N/A   Clear
12:53 PM 84.2 °F - 42.8 °F 23% 29.90 in 7.0 mi SE 10.4 mph - N/A   Clear
12:57 PM 86.0 °F - 42.8 °F 22% 29.90 in 10.0 mi SE 10.4 mph - N/A   Clear
1:13 PM 87.8 °F - 44.6 °F 22% 29.91 in 4.0 mi SSE 10.4 mph - N/A   Haze
1:17 PM 86.0 °F - 42.8 °F 22% 29.91 in 3.0 mi SSE 9.2 mph - N/A   Haze
1:33 PM 86.0 °F - 41.0 °F 20% 29.90 in 7.0 mi SSE 8.1 mph - N/A   Clear
1:37 PM 87.8 °F - 42.8 °F 21% 29.90 in 7.0 mi SE 8.1 mph - N/A   Clear
1:53 PM 86.0 °F - 46.4 °F 25% 29.90 in 10.0 mi SSE 5.8 mph - N/A   Clear
1:57 PM 86.0 °F - 46.4 °F 25% 29.89 in 10.0 mi SE 6.9 mph - N/A   Clear
2:14 PM 87.8 °F - 44.6 °F 22% 29.89 in 7.0 mi SE 6.9 mph - N/A   Clear
2:17 PM 89.6 °F - 44.6 °F 21% 29.89 in 7.0 mi SE 6.9 mph - N/A   Clear
2:34 PM 89.6 °F - 39.2 °F 17% 29.88 in 10.0 mi SE 8.1 mph - N/A   Clear
2:37 PM 89.6 °F - 39.2 °F 17% 29.88 in 10.0 mi ESE 9.2 mph - N/A   Clear
2:53 PM 89.6 °F - 39.2 °F 17% 29.88 in 10.0 mi SSE 8.1 mph - N/A   Clear
2:57 PM 89.6 °F - 39.2 °F 17% 29.88 in 10.0 mi SE 9.2 mph - N/A   Clear
3:13 PM 89.6 °F - 39.2 °F 17% 29.87 in 10.0 mi SSE 8.1 mph - N/A   Clear
3:17 PM 89.6 °F - 37.4 °F 16% 29.87 in 7.0 mi SE 8.1 mph - N/A   Clear
3:33 PM 91.4 °F - 35.6 °F 14% 29.87 in 10.0 mi SE 8.1 mph - N/A   Clear
3:37 PM 91.4 °F - 33.8 °F 13% 29.87 in 10.0 mi East 8.1 mph - N/A   Clear
3:53 PM 91.4 °F - 30.2 °F 11% 29.86 in 10.0 mi ESE 8.1 mph - N/A   Clear
3:57 PM 89.6 °F - 32.0 °F 13% 29.86 in 10.0 mi ESE 10.4 mph - N/A   Clear
4:13 PM 89.6 °F - 30.2 °F 12% 29.85 in 4.0 mi SE 10.4 mph - N/A   Haze
4:17 PM 89.6 °F - 30.2 °F 12% 29.85 in 5.0 mi SE 8.1 mph - N/A   Haze
4:33 PM 89.6 °F - 33.8 °F 14% 29.85 in 10.0 mi ESE 8.1 mph - N/A   Clear
4:37 PM 87.8 °F - 32.0 °F 14% 29.85 in 10.0 mi ESE 6.9 mph - N/A   Clear
4:53 PM 89.6 °F - 30.2 °F 12% 29.85 in 10.0 mi SE 5.8 mph - N/A   Clear
4:57 PM 91.4 °F - 32.0 °F 12% 29.85 in 10.0 mi SE 9.2 mph - N/A   Clear
5:13 PM 87.8 °F - 35.6 °F 16% 29.84 in 10.0 mi ESE 10.4 mph - N/A   Clear
5:18 PM 87.8 °F - 37.4 °F 17% 29.83 in 10.0 mi ESE 10.4 mph - N/A   Clear
5:33 PM 89.6 °F - 37.4 °F 16% 29.83 in 10.0 mi SSE 10.4 mph - N/A   Clear
5:37 PM 89.6 °F - 37.4 °F 16% 29.83 in 10.0 mi SSE 9.2 mph - N/A   Clear
5:53 PM 89.6 °F - 33.8 °F 14% 29.83 in 10.0 mi SE 8.1 mph - N/A   Clear
5:57 PM 89.6 °F - 35.6 °F 15% 29.83 in 10.0 mi SE 9.2 mph - N/A   Clear
6:13 PM 87.8 °F - 37.4 °F 17% 29.82 in 10.0 mi SE 10.4 mph - N/A   Clear
6:17 PM 87.8 °F - 37.4 °F 17% 29.82 in 7.0 mi SE 9.2 mph - N/A   Clear
6:33 PM 84.2 °F - 41.0 °F 22% 29.83 in 10.0 mi ESE 4.6 mph - N/A   Clear
6:37 PM 84.2 °F - 42.8 °F 23% 29.84 in 10.0 mi ESE 4.6 mph - N/A   Clear
6:53 PM 82.4 °F - 44.6 °F 26% 29.84 in 10.0 mi ESE 3.5 mph - N/A   Clear
6:57 PM 82.4 °F - 46.4 °F 28% 29.84 in 10.0 mi Calm Calm - N/A   Clear
7:14 PM 78.8 °F - 53.6 °F 42% 29.85 in 10.0 mi East 4.6 mph - N/A   Clear
7:17 PM 78.8 °F - 51.8 °F 39% 29.85 in 10.0 mi East 5.8 mph - N/A   Clear
7:33 PM 75.2 °F - 53.6 °F 47% 29.85 in 10.0 mi ENE 6.9 mph - N/A   Clear
7:37 PM 75.2 °F - 53.6 °F 47% 29.85 in 10.0 mi ENE 6.9 mph - N/A   Clear
7:53 PM 75.2 °F - 48.2 °F 38% 29.84 in 10.0 mi East 5.8 mph - N/A   Clear
7:57 PM 75.2 °F - 48.2 °F 38% 29.84 in 10.0 mi East 5.8 mph - N/A   Clear
8:14 PM 73.4 °F - 48.2 °F 41% 29.84 in 10.0 mi East 6.9 mph - N/A   Clear
8:17 PM 73.4 °F - 48.2 °F 41% 29.83 in 10.0 mi East 6.9 mph - N/A   Clear
8:37 PM 73.4 °F - 48.2 °F 41% 29.85 in 10.0 mi ESE 5.8 mph - N/A   Clear
8:53 PM 73.4 °F - 48.2 °F 41% 29.85 in 10.0 mi ESE 4.6 mph - N/A   Clear
8:57 PM 73.4 °F - 48.2 °F 41% 29.85 in 10.0 mi ESE 4.6 mph - N/A   Clear
9:13 PM 71.6 °F - 51.8 °F 50% 29.86 in 10.0 mi East 4.6 mph - N/A   Clear
9:17 PM 71.6 °F - 53.6 °F 53% 29.87 in 10.0 mi ENE 4.6 mph - N/A   Clear
9:34 PM 69.8 °F - 53.6 °F 56% 29.88 in 10.0 mi NE 8.1 mph - N/A   Clear
9:38 PM 69.8 °F - 53.6 °F 56% 29.87 in 10.0 mi ENE 6.9 mph - N/A   Clear
9:54 PM 71.6 °F - 51.8 °F 50% 29.87 in 10.0 mi ENE 8.1 mph - N/A   Clear
9:58 PM 69.8 °F - 51.8 °F 53% 29.87 in 10.0 mi ENE 9.2 mph - N/A   Clear
10:13 PM 71.6 °F - 50.0 °F 46% 29.86 in 10.0 mi East 9.2 mph - N/A   Clear
10:17 PM 71.6 °F - 48.2 °F 43% 29.86 in 10.0 mi East 9.2 mph - N/A   Clear
10:33 PM 71.6 °F - 50.0 °F 46% 29.85 in 10.0 mi East 10.4 mph - N/A   Clear
10:37 PM 71.6 °F - 50.0 °F 46% 29.85 in 10.0 mi East 9.2 mph - N/A   Clear
10:53 PM 71.6 °F - 50.0 °F 46% 29.85 in 10.0 mi ESE 8.1 mph - N/A   Clear
10:57 PM 71.6 °F - 50.0 °F 46% 29.84 in 10.0 mi ESE 10.4 mph - N/A   Clear
11:13 PM 71.6 °F - 51.8 °F 50% 29.84 in 10.0 mi ESE 9.2 mph - N/A   Clear
11:17 PM 71.6 °F - 51.8 °F 50% 29.84 in 10.0 mi ESE 9.2 mph - N/A   Clear
11:34 PM 71.6 °F - 51.8 °F 50% 29.83 in 10.0 mi ESE 9.2 mph - N/A   Clear
11:37 PM 71.6 °F - 51.8 °F 50% 29.83 in 10.0 mi ESE 8.1 mph - N/A   Clear
11:53 PM 71.6 °F - 51.8 °F 50% 29.83 in 10.0 mi SE 8.1 mph - N/A   Clear
11:57 PM 71.6 °F - 53.6 °F 53% 29.83 in 10.0 mi ESE 9.2 mph - N/A   Clear